e-Mail: Password: Lost your password? Click here. - Register a new user

c h a v e z j u a r e z . c o m

Weather - Tiempo - Wetter - Temps

METAR DATA MMMX (Mexico City)

Mexico City / Licenci, Mexico (MMMX) 19-26N 099-06W
Nov 17, 2019 - 12:45 AM EST / 2019.11.17 0545 UTC
Wind: from the NW (310 degrees) at 6 MPH (5 KT):0
Visibility: 7 mile(s):0
Sky conditions: mostly cloudy
Temperature: 60 F (16 C)
Dew Point: 41 F (5 C)
Relative Humidity: 47%
Pressure (altimeter): 30.32 in. Hg (1026 hPa)
Pressure tendency: 0.01 inches (0.3 hPa) higher than three hours ago
ob: MMMX 170545Z 31005KT 7SM SCT080 BKN200 16/05 A3032 NOSIG RMK SLP113 52003 966 8/038 HZY
cycle: 6

Mexico City

St. Prex




Current weather alarms for Switzerland


www.wetteralarm.ch